Time;durP1;ratioP1;P1;durP2;ratioP2;P2;SDS_P1;SDS_P2;PMS_P1;PMS_P2;Temp;Humidity;BMP_temperature;BMP_pressure;BME280_temperature;BME280_humidity;BME280_pressure;Samples;Min_cycle;Max_cycle;Signal;HPM_P1;HPM_P2
2022/09/23 00:02:23;;;;;;;26.45;21.90;;;15.90;62.50;;;;;;5091689;28;20034;-80
2022/09/23 00:04:49;;;;;;;25.58;21.52;;;15.90;62.50;;;;;;5091924;28;20113;-80
2022/09/23 00:07:15;;;;;;;26.67;22.63;;;16.00;62.60;;;;;;5091469;28;20024;-81
2022/09/23 00:09:40;;;;;;;28.80;23.13;;;15.90;62.50;;;;;;5092571;28;20075;-81
2022/09/23 00:12:09;;;;;;;26.52;22.20;;;15.90;62.60;;;;;;5091399;28;20028;-81
2022/09/23 00:14:37;;;;;;;27.60;22.85;;;15.90;62.60;;;;;;5092545;28;20062;-82
2022/09/23 00:17:03;;;;;;;27.17;22.15;;;16.20;62.70;;;;;;5097113;28;20078;-80
2022/09/23 00:19:29;;;;;;;27.70;21.85;;;15.90;62.60;;;;;;5097330;28;20028;-81
2022/09/23 00:21:55;;;;;;;25.55;21.55;;;15.90;62.60;;;;;;5095550;28;20054;-80
2022/09/23 00:24:22;;;;;;;26.20;21.80;;;15.90;62.60;;;;;;5096895;28;20039;-79
2022/09/23 00:26:48;;;;;;;29.17;22.20;;;15.90;62.60;;;;;;5096720;28;20028;-81
2022/09/23 00:29:14;;;;;;;26.90;22.60;;;15.90;62.60;;;;;;5095246;28;20119;-80
2022/09/23 00:31:41;;;;;;;29.08;22.13;;;15.90;62.60;;;;;;5095483;28;20416;-81
2022/09/23 00:34:09;;;;;;;23.75;20.55;;;15.90;62.60;;;;;;5095186;28;20062;-80
2022/09/23 00:36:35;;;;;;;25.45;21.20;;;15.90;62.70;;;;;;5096208;28;20040;-79
2022/09/23 00:39:02;;;;;;;27.08;22.67;;;15.90;62.70;;;;;;5094738;28;20080;-80
2022/09/23 00:41:32;;;;;;;25.08;21.63;;;15.90;62.70;;;;;;5095745;28;20034;-81
2022/09/23 00:43:59;;;;;;;26.48;22.48;;;15.90;62.70;;;;;;5095508;28;20178;-80
2022/09/23 00:46:39;;;;;;;25.27;21.38;;;15.90;62.70;;;;;;5078015;28;20150;-82
2022/09/23 00:49:14;;;;;;;25.75;21.67;;;15.90;62.70;;;;;;5078203;28;20024;-81
2022/09/23 00:51:47;;;;;;;23.27;20.13;;;15.90;62.70;;;;;;5078651;28;20462;-80
2022/09/23 00:54:13;;;;;;;24.07;20.60;;;15.90;62.80;;;;;;5078926;28;20048;-80
2022/09/23 00:56:39;;;;;;;25.08;21.20;;;15.90;63.30;;;;;;5096204;28;20062;-81
2022/09/23 00:59:08;;;;;;;24.83;20.98;;;15.90;62.80;;;;;;5077782;28;20085;-80
2022/09/23 01:01:36;;;;;;;24.80;21.25;;;15.80;62.70;;;;;;5095872;28;20032;-82
2022/09/23 01:04:03;;;;;;;26.08;21.00;;;15.80;62.70;;;;;;5078387;28;20035;-80
2022/09/23 01:06:29;;;;;;;23.63;20.60;;;15.80;62.80;;;;;;5078269;28;20425;-80
2022/09/23 01:08:56;;;;;;;24.45;21.23;;;15.90;62.80;;;;;;5077309;28;20064;-81
2022/09/23 01:11:48;;;;;;;25.17;21.10;;;15.90;62.80;;;;;;5076882;28;20031;-81
2022/09/23 01:14:35;;;;;;;24.23;20.45;;;15.90;62.90;;;;;;5077183;28;20119;-79
2022/09/23 01:17:14;;;;;;;25.30;20.42;;;15.90;62.80;;;;;;5077601;28;20039;-81
2022/09/23 01:19:56;;;;;;;24.58;20.50;;;15.80;62.80;;;;;;5077836;28;20489;-80
2022/09/23 01:22:39;;;;;;;23.40;20.25;;;15.90;62.90;;;;;;5078050;28;20028;-80
2022/09/23 01:25:23;;;;;;;21.73;18.60;;;15.90;62.90;;;;;;5077674;28;20032;-81
2022/09/23 01:28:08;;;;;;;24.42;18.85;;;15.90;62.90;;;;;;5078149;28;20064;-81
2022/09/23 01:30:57;;;;;;;22.17;19.23;;;15.90;62.90;;;;;;5077811;28;20382;-82
2022/09/23 01:33:28;;;;;;;22.23;18.95;;;15.80;62.90;;;;;;5095624;28;20035;-82
2022/09/23 01:36:30;;;;;;;24.55;19.45;;;15.80;62.80;;;;;;5077201;28;20039;-80
2022/09/23 01:38:58;;;;;;;23.33;19.58;;;15.80;62.90;;;;;;5094734;28;20039;-80
2022/09/23 01:41:52;;;;;;;22.73;19.50;;;15.80;62.80;;;;;;5076580;28;20081;-82
2022/09/23 01:44:33;;;;;;;22.48;19.27;;;15.80;62.90;;;;;;5094552;28;20051;-80
2022/09/23 01:47:14;;;;;;;23.02;18.73;;;15.80;62.80;;;;;;5078073;28;20024;-80
2022/09/23 01:49:45;;;;;;;21.27;18.20;;;15.80;62.90;;;;;;5076570;28;20039;-80
2022/09/23 01:52:21;;;;;;;22.88;19.00;;;15.80;62.90;;;;;;5077391;28;20111;-81
2022/09/23 01:55:18;;;;;;;23.15;18.98;;;15.70;62.90;;;;;;5077111;28;20031;-81
2022/09/23 01:57:52;;;;;;;23.17;19.73;;;15.80;62.90;;;;;;5060495;28;20081;-81
2022/09/23 02:00:19;;;;;;;21.88;18.38;;;15.80;62.90;;;;;;5077345;28;20115;-81
2022/09/23 02:02:53;;;;;;;22.33;18.52;;;15.80;62.90;;;;;;5077101;28;20470;-81
2022/09/23 02:05:49;;;;;;;20.52;17.95;;;15.80;62.90;;;;;;5094588;28;20050;-79
2022/09/23 02:08:34;;;;;;;22.08;19.17;;;15.80;63.00;;;;;;5094431;28;20132;-79
2022/09/23 02:11:07;;;;;;;;;;;15.80;63.00;;;;;;5076472;28;20067;-80
2022/09/23 02:13:39;;;;;;;20.48;17.25;;;15.80;63.10;;;;;;5075816;28;19911;-79
2022/09/23 02:16:21;;;;;;;20.90;17.75;;;15.80;62.90;;;;;;5076339;28;20031;-81
2022/09/23 02:18:54;;;;;;;21.10;17.77;;;15.80;62.90;;;;;;5076665;28;20031;-80
2022/09/23 02:21:24;;;;;;;21.80;18.05;;;15.80;63.00;;;;;;5075856;28;20123;-80
2022/09/23 02:23:58;;;;;;;21.13;17.77;;;15.80;63.00;;;;;;5093905;28;20066;-80
2022/09/23 02:26:39;;;;;;;23.08;18.52;;;15.80;63.00;;;;;;5093822;28;20050;-82
2022/09/23 02:29:18;;;;;;;22.42;18.10;;;15.70;63.00;;;;;;5093986;28;20035;-80
2022/09/23 02:31:59;;;;;;;20.80;17.27;;;15.70;63.00;;;;;;5094675;28;20036;-80
2022/09/23 02:34:44;;;;;;;22.50;17.83;;;15.80;63.10;;;;;;5076253;28;20028;-80
2022/09/23 02:37:22;;;;;;;20.45;17.02;;;15.80;63.10;;;;;;5074674;28;20371;-81
2022/09/23 02:40:00;;;;;;;22.05;18.33;;;15.70;63.00;;;;;;5076477;28;20054;-81
2022/09/23 02:42:51;;;;;;;21.67;17.98;;;15.70;63.00;;;;;;5076541;28;20024;-80
2022/09/23 02:45:17;;;;;;;20.60;17.85;;;15.80;63.10;;;;;;5094322;28;20055;-80
2022/09/23 02:47:48;;;;;;;20.92;17.63;;;15.80;63.10;;;;;;5094380;28;20020;-81
2022/09/23 02:50:13;;;;;;;20.67;18.33;;;15.70;63.10;;;;;;5075785;28;20618;-80
2022/09/23 02:52:39;;;;;;;20.25;17.92;;;15.70;63.10;;;;;;5075043;28;20056;-80
2022/09/23 02:55:07;;;;;;;20.13;17.33;;;15.80;63.10;;;;;;5093398;28;20377;-79
2022/09/23 02:57:34;;;;;;;20.35;17.15;;;15.70;63.10;;;;;;5093199;28;20039;-81
2022/09/23 03:00:01;;;;;;;20.52;17.95;;;15.70;63.10;;;;;;5058468;28;20024;-80
2022/09/23 03:02:54;;;;;;;21.60;17.80;;;15.80;63.20;;;;;;5093613;28;20020;-80
2022/09/23 03:05:30;;;;;;;20.40;17.45;;;15.80;63.20;;;;;;5093688;28;20036;-81
2022/09/23 03:08:15;;;;;;;20.30;17.33;;;15.70;63.20;;;;;;5074853;28;20473;-81
2022/09/23 03:11:07;;;;;;;21.45;17.88;;;15.80;63.20;;;;;;5093419;28;20085;-81
2022/09/23 03:14:16;;;;;;;18.33;16.13;;;15.70;63.20;;;;;;5092785;28;20484;-82
2022/09/23 03:17:05;;;;;;;19.35;16.98;;;15.80;63.20;;;;;;5037810;28;20042;-80
2022/09/23 03:19:41;;;;;;;19.90;16.05;;;15.80;63.20;;;;;;5075161;28;20162;-78
2022/09/23 03:22:18;;;;;;;19.95;16.75;;;15.70;63.10;;;;;;5075835;28;20024;-80
2022/09/23 03:24:46;;;;;;;19.35;16.42;;;15.70;63.10;;;;;;5075761;28;20032;-79
2022/09/23 03:27:17;;;;;;;18.45;16.33;;;15.70;63.20;;;;;;5093616;28;20491;-79
2022/09/23 03:29:46;;;;;;;19.23;16.35;;;15.70;63.20;;;;;;5093720;28;20031;-82
2022/09/23 03:32:14;;;;;;;18.23;16.23;;;15.70;63.20;;;;;;5093569;28;20024;-81
2022/09/23 03:34:43;;;;;;;19.35;16.77;;;15.70;63.20;;;;;;5093548;28;20118;-81
2022/09/23 03:37:16;;;;;;;18.63;16.63;;;15.70;63.30;;;;;;5074854;28;20125;-80
2022/09/23 03:40:35;;;;;;;18.17;15.48;;;15.70;63.30;;;;;;5093131;28;20035;-80
2022/09/23 03:43:03;;;;;;;19.73;16.40;;;15.70;63.30;;;;;;5033441;28;20504;-83
2022/09/23 03:45:31;;;;;;;18.90;15.85;;;15.70;63.20;;;;;;5093136;28;20068;-82
2022/09/23 03:47:57;;;;;;;20.42;16.90;;;15.70;63.20;;;;;;5075243;28;20132;-81
2022/09/23 03:50:23;;;;;;;18.52;15.75;;;15.70;63.30;;;;;;5078605;28;20035;-80
2022/09/23 03:52:49;;;;;;;20.08;16.90;;;15.70;63.30;;;;;;5078791;28;20389;-83
2022/09/23 03:55:17;;;;;;;19.95;16.25;;;15.70;63.30;;;;;;5096608;28;20031;-81
2022/09/23 03:57:44;;;;;;;18.55;16.45;;;15.70;63.30;;;;;;5078428;28;20114;-81
2022/09/23 04:00:11;;;;;;;18.48;16.15;;;15.70;63.30;;;;;;5078844;28;20032;-83
2022/09/23 04:02:37;;;;;;;18.98;16.42;;;15.70;63.30;;;;;;5095488;28;20103;-81
2022/09/23 04:05:04;;;;;;;18.60;16.33;;;15.70;63.30;;;;;;5077711;28;20024;-81
2022/09/23 04:07:30;;;;;;;19.45;16.45;;;15.70;63.30;;;;;;5095847;28;20024;-83
2022/09/23 04:09:56;;;;;;;17.85;15.95;;;15.70;63.40;;;;;;5079289;28;20024;-81
2022/09/23 04:12:21;;;;;;;17.83;15.93;;;15.70;63.40;;;;;;5096393;28;20529;-80
2022/09/23 04:14:47;;;;;;;18.95;16.25;;;15.70;63.30;;;;;;5079001;28;20028;-80
2022/09/23 04:17:13;;;;;;;19.67;17.20;;;15.50;63.30;;;;;;5078009;28;20120;-81
2022/09/23 04:19:39;;;;;;;19.13;15.82;;;15.70;63.40;;;;;;5079596;28;20026;-80
2022/09/23 04:22:06;;;;;;;18.95;16.15;;;15.70;63.40;;;;;;5078614;28;20020;-81
2022/09/23 04:24:31;;;;;;;19.48;16.15;;;15.70;63.40;;;;;;5062290;28;20080;-80
2022/09/23 04:26:57;;;;;;;18.95;16.20;;;15.70;63.40;;;;;;5096437;28;20107;-81
2022/09/23 04:29:24;;;;;;;18.40;16.40;;;15.70;63.40;;;;;;5096129;28;20396;-81
2022/09/23 04:31:50;;;;;;;19.88;15.93;;;15.70;63.40;;;;;;5096168;28;21042;-81
2022/09/23 04:34:16;;;;;;;19.25;15.73;;;15.70;63.40;;;;;;5078398;28;20020;-80
2022/09/23 04:36:44;;;;;;;18.65;15.48;;;15.70;63.40;;;;;;5096363;28;20148;-81
2022/09/23 04:39:10;;;;;;;17.20;15.05;;;15.70;63.40;;;;;;5075404;28;20043;-81
2022/09/23 04:41:36;;;;;;;18.92;15.63;;;15.70;63.40;;;;;;5077919;28;20028;-81
2022/09/23 04:44:03;;;;;;;17.45;15.63;;;15.80;63.40;;;;;;5079125;28;20140;-82
2022/09/23 04:46:30;;;;;;;16.95;14.68;;;15.80;63.40;;;;;;5094578;28;20054;-81
2022/09/23 04:48:56;;;;;;;17.73;14.80;;;15.80;63.40;;;;;;5095462;28;20047;-79
2022/09/23 04:51:23;;;;;;;17.80;15.52;;;15.80;63.40;;;;;;5094253;28;20462;-79
2022/09/23 04:53:51;;;;;;;18.13;14.77;;;15.80;63.40;;;;;;5095162;28;20022;-82
2022/09/23 04:56:28;;;;;;;16.80;14.90;;;15.80;63.30;;;;;;5093784;28;20020;-81
2022/09/23 04:58:57;;;;;;;17.73;14.57;;;15.80;63.30;;;;;;5093813;28;20434;-80
2022/09/23 05:01:25;;;;;;;17.25;14.73;;;15.90;63.30;;;;;;5094455;28;20024;-81
2022/09/23 05:03:57;;;;;;;18.15;15.57;;;15.80;63.20;;;;;;5094280;28;20039;-82
2022/09/23 05:06:24;;;;;;;16.60;14.50;;;15.90;63.30;;;;;;5096042;28;20526;-79
2022/09/23 05:08:54;;;;;;;15.88;13.82;;;15.80;63.20;;;;;;5094304;28;20028;-82
2022/09/23 05:11:21;;;;;;;16.83;15.02;;;15.90;63.20;;;;;;5094317;28;20378;-82
2022/09/23 05:13:48;;;;;;;17.50;14.75;;;15.90;63.20;;;;;;5095372;28;20397;-81
2022/09/23 05:16:15;;;;;;;17.38;14.98;;;15.90;63.20;;;;;;5083020;28;20107;-82
2022/09/23 05:18:42;;;;;;;17.75;14.85;;;15.70;63.10;;;;;;5094063;28;20028;-82
2022/09/23 05:21:23;;;;;;;17.33;14.48;;;15.90;63.20;;;;;;5094361;28;20039;-81
2022/09/23 05:23:53;;;;;;;18.60;15.35;;;15.90;63.20;;;;;;5093262;28;20055;-82
2022/09/23 05:26:20;;;;;;;16.77;14.95;;;15.90;63.10;;;;;;5094853;28;20024;-83
2022/09/23 05:28:45;;;;;;;15.32;13.30;;;15.90;63.20;;;;;;5095742;28;20062;-81
2022/09/23 05:31:19;;;;;;;13.10;11.10;;;15.90;63.30;;;;;;5092712;28;20063;-82
2022/09/23 05:33:48;;;;;;;12.18;10.35;;;15.90;63.50;;;;;;5093084;28;20027;-84
2022/09/23 05:36:16;;;;;;;11.25;9.40;;;15.90;63.60;;;;;;5092447;28;20398;-84
2022/09/23 05:38:43;;;;;;;10.27;8.77;;;15.90;63.70;;;;;;5092726;28;20089;-84
2022/09/23 05:41:12;;;;;;;9.30;8.00;;;15.90;64.30;;;;;;5094111;28;20031;-84
2022/09/23 05:43:38;;;;;;;9.57;8.57;;;16.00;63.80;;;;;;5090381;28;20016;-83
2022/09/23 05:46:13;;;;;;;9.18;7.90;;;16.00;63.70;;;;;;5076116;28;20039;-84
2022/09/23 05:48:40;;;;;;;9.68;8.05;;;16.00;63.70;;;;;;5077947;28;20024;-90
2022/09/23 05:51:11;;;;;;;8.25;7.35;;;16.00;63.70;;;;;;5084586;28;20020;-88
2022/09/23 05:53:44;;;;;;;8.45;7.18;;;16.10;63.70;;;;;;5085877;28;20068;-92
2022/09/23 05:56:12;;;;;;;9.70;8.23;;;16.00;63.60;;;;;;5087099;28;20040;-91
2022/09/23 05:58:37;;;;;;;8.43;7.55;;;16.10;63.70;;;;;;5103155;28;20020;-88
2022/09/23 06:01:11;;;;;;;8.43;7.35;;;16.10;63.70;;;;;;5103429;28;20028;-87
2022/09/23 06:03:38;;;;;;;9.60;7.68;;;16.40;63.70;;;;;;5102029;28;20069;-88
2022/09/23 06:06:05;;;;;;;9.23;7.70;;;16.20;63.60;;;;;;5085342;28;20076;-88
2022/09/23 06:08:32;;;;;;;8.35;7.28;;;16.20;63.50;;;;;;5085041;28;20030;-88
2022/09/23 06:11:04;;;;;;;8.77;7.22;;;16.20;63.40;;;;;;5102850;28;20085;-90
2022/09/23 06:13:30;;;;;;;8.45;7.28;;;16.30;63.40;;;;;;5097794;28;20062;-82
2022/09/23 06:15:59;;;;;;;8.48;7.25;;;16.30;63.30;;;;;;5101062;28;20024;-88
2022/09/23 06:18:24;;;;;;;8.15;6.68;;;16.30;63.20;;;;;;5096787;28;20035;-91
2022/09/23 06:20:50;;;;;;;8.23;7.20;;;16.10;63.10;;;;;;5083242;28;20024;-88
2022/09/23 06:23:16;;;;;;;9.27;7.18;;;16.40;63.20;;;;;;5087998;28;20028;-88
2022/09/23 06:25:42;;;;;;;7.85;7.03;;;16.40;63.20;;;;;;5098873;28;20169;-81
2022/09/23 06:28:12;;;;;;;8.40;7.13;;;16.40;63.10;;;;;;5078647;28;20032;-82
2022/09/23 06:30:38;;;;;;;7.85;6.78;;;16.40;63.10;;;;;;5096289;28;20051;-83
2022/09/23 06:33:04;;;;;;;8.48;6.95;;;16.50;63.70;;;;;;5095488;28;20028;-84
2022/09/23 06:35:32;;;;;;;8.55;7.50;;;16.50;63.10;;;;;;5077362;28;20032;-80
2022/09/23 06:37:58;;;;;;;7.75;6.53;;;16.50;63.00;;;;;;5076415;28;20024;-85
2022/09/23 06:40:24;;;;;;;8.05;6.70;;;16.50;63.00;;;;;;5095847;28;20212;-84
2022/09/23 06:43:00;;;;;;;8.00;6.80;;;16.60;63.00;;;;;;5076609;28;20058;-84
2022/09/23 06:45:27;;;;;;;7.97;6.70;;;16.60;63.00;;;;;;5090498;28;20051;-81
2022/09/23 06:47:57;;;;;;;7.82;6.50;;;16.70;62.90;;;;;;5094743;28;20031;-86
2022/09/23 06:50:25;;;;;;;7.28;6.57;;;16.70;62.70;;;;;;5093398;28;20021;-81
2022/09/23 06:52:54;;;;;;;8.43;6.80;;;16.80;62.70;;;;;;5093660;28;20039;-80
2022/09/23 06:55:23;;;;;;;7.68;6.57;;;16.80;62.60;;;;;;5094330;28;20042;-82
2022/09/23 06:57:49;;;;;;;7.50;6.60;;;16.90;62.60;;;;;;5093342;28;20024;-84
2022/09/23 07:00:15;;;;;;;8.20;6.53;;;16.90;62.50;;;;;;5094275;28;20114;-82
2022/09/23 07:02:41;;;;;;;7.72;6.93;;;16.90;62.50;;;;;;5093638;28;20032;-87
2022/09/23 07:05:08;;;;;;;7.45;6.35;;;17.00;62.40;;;;;;5094455;28;20043;-82
2022/09/23 07:07:35;;;;;;;7.32;6.50;;;17.00;62.40;;;;;;5095183;28;20031;-84
2022/09/23 07:10:01;;;;;;;8.10;6.68;;;17.10;62.40;;;;;;5092827;28;20055;-85
2022/09/23 07:12:27;;;;;;;7.57;6.28;;;17.20;62.30;;;;;;5094668;28;20429;-83
2022/09/23 07:14:53;;;;;;;7.30;6.50;;;17.20;62.20;;;;;;5095718;28;20020;-83
2022/09/23 07:17:19;;;;;;;7.63;6.50;;;17.30;62.20;;;;;;5095167;28;20039;-81
2022/09/23 07:19:45;;;;;;;7.53;6.70;;;17.30;62.00;;;;;;5094254;28;20077;-77
2022/09/23 07:22:10;;;;;;;7.10;6.40;;;17.40;62.00;;;;;;5095095;28;20032;-85
2022/09/23 07:24:37;;;;;;;7.32;6.45;;;17.40;61.90;;;;;;5095153;28;20031;-81
2022/09/23 07:27:04;;;;;;;7.05;5.93;;;17.50;61.80;;;;;;5093611;28;20040;-87
2022/09/23 07:29:30;;;;;;;7.18;6.25;;;17.50;61.70;;;;;;5094897;28;20111;-79
2022/09/23 07:31:56;;;;;;;7.70;5.97;;;17.60;61.70;;;;;;5094020;28;20067;-81
2022/09/23 07:34:21;;;;;;;7.45;5.80;;;17.60;61.60;;;;;;5093626;28;20453;-82
2022/09/23 07:36:47;;;;;;;7.05;6.07;;;17.60;61.60;;;;;;5094291;28;20036;-83
2022/09/23 07:39:13;;;;;;;7.45;6.15;;;17.70;61.50;;;;;;5095174;28;20028;-85
2022/09/23 07:41:43;;;;;;;6.68;5.85;;;17.80;61.50;;;;;;5094123;28;20067;-82
2022/09/23 07:44:10;;;;;;;7.43;6.00;;;17.80;61.40;;;;;;5093913;28;20464;-78
2022/09/23 07:46:36;;;;;;;7.25;5.70;;;17.80;61.30;;;;;;5076821;28;20032;-81
2022/09/23 07:49:03;;;;;;;6.50;5.70;;;17.90;61.30;;;;;;5094407;28;20028;-83
2022/09/23 07:51:31;;;;;;;7.05;6.35;;;17.90;61.20;;;;;;5093925;28;20412;-83
2022/09/23 07:53:57;;;;;;;6.70;6.00;;;17.90;61.20;;;;;;5093728;28;20024;-82
2022/09/23 07:56:26;;;;;;;6.90;6.20;;;17.90;61.10;;;;;;5075860;28;20047;-83
2022/09/23 07:58:58;;;;;;;6.22;5.63;;;17.90;61.10;;;;;;5094099;28;20031;-82
2022/09/23 08:01:27;;;;;;;6.28;5.50;;;17.80;61.20;;;;;;5078606;28;20107;-83
2022/09/23 08:03:57;;;;;;;6.45;5.75;;;17.90;61.20;;;;;;5076081;28;20401;-84
2022/09/23 08:06:23;;;;;;;6.60;5.90;;;18.00;61.20;;;;;;5094299;28;20055;-79
2022/09/23 08:08:49;;;;;;;6.50;5.47;;;18.00;61.10;;;;;;5094121;28;20067;-81
2022/09/23 08:11:15;;;;;;;6.60;5.82;;;18.10;61.00;;;;;;5094421;28;20024;-84
2022/09/23 08:13:41;;;;;;;6.80;5.90;;;18.10;60.90;;;;;;5093903;28;20024;-82
2022/09/23 08:16:07;;;;;;;6.40;5.47;;;18.20;60.90;;;;;;5093440;28;20039;-81
2022/09/23 08:18:33;;;;;;;6.82;5.95;;;18.20;60.80;;;;;;5093762;28;20069;-84
2022/09/23 08:20:59;;;;;;;6.30;5.55;;;18.20;60.70;;;;;;5094363;28;20024;-79
2022/09/23 08:23:26;;;;;;;6.40;5.45;;;18.30;60.70;;;;;;5076378;28;20050;-83
2022/09/23 08:26:00;;;;;;;7.50;6.07;;;18.30;60.70;;;;;;5075764;28;20484;-82
2022/09/23 08:28:27;;;;;;;6.80;6.07;;;18.20;60.60;;;;;;5075732;28;20109;-85
2022/09/23 08:30:53;;;;;;;6.47;5.80;;;18.20;60.60;;;;;;5076049;28;20036;-84
2022/09/23 08:33:19;;;;;;;6.30;5.55;;;18.10;60.60;;;;;;5093599;28;20483;-80
2022/09/23 08:35:45;;;;;;;6.60;5.53;;;18.00;60.70;;;;;;5078201;28;20124;-85
2022/09/23 08:38:11;;;;;;;5.80;5.10;;;18.00;60.80;;;;;;5097802;28;20351;-83
2022/09/23 08:40:40;;;;;;;6.53;5.45;;;17.90;60.80;;;;;;5079667;28;20055;-83
2022/09/23 08:43:14;;;;;;;6.32;5.43;;;17.80;60.90;;;;;;5096907;28;20102;-78
2022/09/23 08:45:42;;;;;;;6.32;5.65;;;17.70;61.00;;;;;;5096729;28;20052;-80
2022/09/23 08:48:15;;;;;;;6.65;5.80;;;17.70;61.10;;;;;;5096791;28;20138;-83
2022/09/23 08:50:47;;;;;;;7.05;5.35;;;17.70;61.20;;;;;;5080744;28;20024;-81
2022/09/23 08:53:37;;;;;;;6.28;5.53;;;17.70;61.20;;;;;;5080212;28;20028;-81
2022/09/23 08:56:14;;;;;;;7.25;5.40;;;17.70;61.20;;;;;;5098537;28;20038;-83
2022/09/23 08:59:00;;;;;;;6.65;5.30;;;17.70;61.20;;;;;;5096992;28;20077;-82
2022/09/23 09:01:46;;;;;;;6.03;5.35;;;17.70;61.20;;;;;;5078653;28;20028;-87
2022/09/23 09:04:27;;;;;;;6.55;5.70;;;17.80;61.10;;;;;;5096369;28;20022;-83
2022/09/23 09:07:14;;;;;;;5.90;5.25;;;17.80;61.00;;;;;;5078971;28;20024;-79
2022/09/23 09:09:46;;;;;;;5.85;4.93;;;17.90;61.10;;;;;;5096560;28;20099;-83
2022/09/23 09:12:19;;;;;;;6.70;5.60;;;18.00;61.00;;;;;;5078162;28;20020;-84
2022/09/23 09:15:01;;;;;;;6.65;5.47;;;18.00;61.50;;;;;;5096514;28;20032;-84
2022/09/23 09:18:05;;;;;;;6.07;5.10;;;18.10;60.80;;;;;;5096551;28;20038;-82
2022/09/23 09:20:50;;;;;;;5.85;4.97;;;18.20;60.70;;;;;;5096290;28;20024;-80
2022/09/23 09:23:26;;;;;;;6.28;5.65;;;18.30;60.60;;;;;;5096194;28;20063;-84
2022/09/23 09:25:56;;;;;;;5.88;5.03;;;18.40;60.50;;;;;;5077953;28;20032;-82
2022/09/23 09:28:34;;;;;;;6.13;5.30;;;18.50;60.50;;;;;;5078351;28;20035;-84
2022/09/23 09:31:10;;;;;;;5.90;5.28;;;18.60;60.20;;;;;;5096600;28;20480;-83
2022/09/23 09:33:43;;;;;;;5.97;5.15;;;18.70;60.10;;;;;;5096378;28;20365;-84
2022/09/23 09:36:18;;;;;;;6.15;5.30;;;18.70;60.00;;;;;;5077632;28;20042;-85
2022/09/23 09:38:44;;;;;;;6.80;5.40;;;18.80;59.90;;;;;;5078757;28;20032;-83
2022/09/23 09:41:16;;;;;;;5.88;5.20;;;18.70;59.80;;;;;;5096137;28;20492;-80
2022/09/23 09:43:55;;;;;;;5.90;5.15;;;18.70;59.80;;;;;;5095610;28;20023;-84
2022/09/23 09:46:45;;;;;;;5.82;5.22;;;18.60;59.80;;;;;;5077273;28;20402;-82
2022/09/23 09:49:37;;;;;;;5.57;5.00;;;18.60;59.80;;;;;;5097483;28;20153;-81
2022/09/23 09:52:18;;;;;;;6.00;4.93;;;18.50;60.00;;;;;;5077635;28;20040;-82
2022/09/23 09:54:43;;;;;;;6.20;5.10;;;18.50;60.00;;;;;;5077625;28;20035;-84
2022/09/23 09:57:43;;;;;;;5.93;4.97;;;18.50;60.20;;;;;;5096101;28;20036;-82
2022/09/23 10:00:35;;;;;;;5.95;4.97;;;18.60;60.00;;;;;;5062766;28;20028;-83
2022/09/23 10:03:12;;;;;;;5.25;4.70;;;18.60;60.00;;;;;;5077423;28;20031;-82
2022/09/23 10:05:44;;;;;;;5.93;5.03;;;18.70;60.00;;;;;;5077471;28;20036;-82
2022/09/23 10:08:15;;;;;;;6.00;5.38;;;18.80;60.00;;;;;;5095421;28;20056;-79
2022/09/23 10:11:02;;;;;;;5.38;4.70;;;18.80;59.90;;;;;;5096064;28;20028;-81
2022/09/23 10:13:29;;;;;;;5.20;4.60;;;18.80;59.80;;;;;;5078344;28;20024;-83
2022/09/23 10:15:56;;;;;;;5.68;4.90;;;18.90;59.70;;;;;;5095407;28;20116;-82
2022/09/23 10:18:48;;;;;;;5.55;4.75;;;18.90;59.70;;;;;;5078830;28;20351;-84
2022/09/23 10:21:16;;;;;;;5.40;4.72;;;18.90;59.50;;;;;;5077308;28;20379;-83
2022/09/23 10:23:53;;;;;;;5.40;4.90;;;18.90;59.60;;;;;;5057304;28;20032;-79
2022/09/23 10:26:31;;;;;;;6.20;5.05;;;18.90;59.50;;;;;;5075762;28;20040;-83
2022/09/23 10:28:59;;;;;;;6.00;5.30;;;18.70;59.50;;;;;;5073502;28;20032;-84
2022/09/23 10:31:33;;;;;;;5.80;5.13;;;18.70;59.70;;;;;;5074663;28;20425;-83
2022/09/23 10:34:26;;;;;;;5.38;4.72;;;18.60;59.70;;;;;;5073608;28;20032;-86
2022/09/23 10:37:15;;;;;;;5.07;4.57;;;18.50;59.70;;;;;;5071449;28;20106;-81
2022/09/23 10:48:32;;;;;;;5.00;4.50;;;18.40;60.00;;;;;;5074766;28;20078;-82
2022/09/23 10:50:59;;;;;;;5.30;4.65;;;18.50;60.10;;;;;;5056805;28;20050;-83
2022/09/23 10:54:03;;;;;;;6.45;5.10;;;18.50;60.00;;;;;;5073728;28;20435;-83
2022/09/23 10:56:38;;;;;;;5.18;4.50;;;18.50;60.00;;;;;;5065144;28;20505;-83
2022/09/23 10:59:17;;;;;;;5.13;4.63;;;18.60;60.00;;;;;;5075030;28;20103;-82
2022/09/23 11:01:58;;;;;;;5.60;4.75;;;18.60;59.90;;;;;;5074655;28;20033;-83
2022/09/23 11:04:58;;;;;;;5.32;4.82;;;18.60;59.90;;;;;;5074760;28;20031;-81
2022/09/23 11:07:53;;;;;;;4.85;4.32;;;18.70;59.80;;;;;;5041546;28;20044;-83
2022/09/23 11:10:27;;;;;;;5.78;5.10;;;18.70;59.80;;;;;;5053014;28;20170;-85
2022/09/23 11:13:14;;;;;;;5.22;4.45;;;18.70;59.70;;;;;;5056519;28;20024;-82
2022/09/23 11:15:54;;;;;;;5.05;4.53;;;18.60;59.70;;;;;;5073710;28;20119;-81
2022/09/23 11:18:57;;;;;;;5.00;4.35;;;18.70;59.70;;;;;;5074371;28;20494;-82
2022/09/23 11:21:36;;;;;;;5.10;4.60;;;18.60;59.70;;;;;;5074340;28;20021;-82
2022/09/23 11:24:22;;;;;;;4.88;4.38;;;18.50;59.70;;;;;;5055896;28;20028;-82
2022/09/23 11:27:06;;;;;;;5.75;4.93;;;18.50;59.90;;;;;;5056249;28;20043;-85
2022/09/23 11:29:41;;;;;;;4.88;4.38;;;18.40;59.90;;;;;;5072836;28;20048;-82
2022/09/23 11:32:20;;;;;;;4.90;4.38;;;18.30;60.00;;;;;;5074986;28;20033;-81
2022/09/23 11:35:15;;;;;;;5.45;4.65;;;18.30;60.00;;;;;;5056336;28;20374;-85
2022/09/23 11:37:57;;;;;;;5.43;4.35;;;18.20;60.10;;;;;;5056860;28;20471;-83
2022/09/23 11:40:29;;;;;;;5.38;4.60;;;18.10;60.20;;;;;;5074282;28;20470;-81
2022/09/23 11:43:16;;;;;;;4.90;4.38;;;18.10;60.30;;;;;;5074040;28;20025;-83
2022/09/23 11:45:57;;;;;;;4.82;4.30;;;18.00;60.40;;;;;;5074351;28;20056;-83
2022/09/23 11:48:34;;;;;;;5.80;4.95;;;18.00;60.50;;;;;;5075020;28;20046;-81
2022/09/23 11:51:00;;;;;;;5.18;4.43;;;18.00;60.60;;;;;;5074131;28;20401;-82
2022/09/23 11:53:40;;;;;;;5.18;4.45;;;18.00;60.60;;;;;;5074523;28;20031;-83
2022/09/23 11:56:09;;;;;;;5.47;4.65;;;18.00;60.60;;;;;;5073973;28;20032;-82
2022/09/23 11:59:14;;;;;;;5.22;4.60;;;18.00;60.60;;;;;;5073615;28;20386;-82
2022/09/23 12:01:56;;;;;;;5.03;4.25;;;17.90;60.50;;;;;;4992583;28;20162;-82
2022/09/23 12:04:39;;;;;;;4.75;4.25;;;17.80;60.60;;;;;;5067146;28;20033;-81
2022/09/23 12:07:07;;;;;;;5.32;4.45;;;17.80;60.70;;;;;;5073836;28;20056;-83
2022/09/23 12:09:33;;;;;;;5.30;4.65;;;17.70;60.70;;;;;;5074089;28;20402;-83
2022/09/23 12:12:22;;;;;;;5.00;4.22;;;17.70;60.80;;;;;;5059208;28;20031;-81
2022/09/23 12:15:38;;;;;;;4.78;4.03;;;17.60;60.90;;;;;;5077522;28;20551;-82
2022/09/23 12:18:20;;;;;;;4.85;4.10;;;17.50;60.90;;;;;;4995760;28;20042;-82
2022/09/23 12:21:25;;;;;;;4.75;4.20;;;17.50;60.90;;;;;;5069574;28;20037;-82
2022/09/23 12:24:14;;;;;;;4.88;4.20;;;17.50;61.00;;;;;;5077206;28;20031;-78
2022/09/23 12:26:42;;;;;;;4.38;3.95;;;17.40;61.10;;;;;;5077030;28;20037;-82
2022/09/23 12:29:12;;;;;;;4.78;4.28;;;17.40;61.10;;;;;;5059271;28;20024;-82
2022/09/23 12:31:40;;;;;;;4.68;4.10;;;17.40;61.10;;;;;;5077467;28;20409;-81
2022/09/23 12:34:39;;;;;;;5.35;4.57;;;17.40;61.20;;;;;;5076738;28;20086;-82
2022/09/23 12:37:05;;;;;;;4.85;4.07;;;17.40;61.20;;;;;;5075470;28;20040;-81
2022/09/23 12:39:34;;;;;;;4.63;4.13;;;17.40;61.80;;;;;;5075911;28;20024;-80
2022/09/23 12:42:09;;;;;;;4.65;3.95;;;17.40;61.20;;;;;;5077148;28;20409;-82
2022/09/23 12:44:41;;;;;;;5.07;4.40;;;17.40;61.20;;;;;;5077419;28;20095;-82
2022/09/23 12:47:24;;;;;;;4.90;4.28;;;17.40;61.20;;;;;;5076766;28;20032;-81
2022/09/23 12:49:55;;;;;;;4.75;4.05;;;17.40;61.20;;;;;;5077096;28;20059;-77
2022/09/23 12:52:26;;;;;;;4.95;4.38;;;17.40;61.20;;;;;;5077073;28;20367;-81
2022/09/23 12:54:57;;;;;;;4.97;4.25;;;17.40;61.20;;;;;;5077107;28;20029;-81
2022/09/23 12:57:32;;;;;;;4.40;4.00;;;17.40;61.40;;;;;;5076917;28;20036;-83
2022/09/23 13:00:11;;;;;;;5.70;4.35;;;17.40;61.20;;;;;;5076769;28;20025;-81
2022/09/23 13:08:39;;;;;;;4.43;3.80;;;17.30;61.30;;;;;;5062198;28;20047;-82
2022/09/23 13:11:15;;;;;;;4.55;4.15;;;17.30;61.40;;;;;;5058767;28;20029;-81
2022/09/23 13:13:44;;;;;;;4.72;4.07;;;17.30;61.40;;;;;;5076562;28;20029;-84
2022/09/23 13:16:12;;;;;;;5.47;4.45;;;17.30;61.30;;;;;;5076755;28;20036;-77
2022/09/23 13:18:59;;;;;;;5.47;4.45;;;17.40;61.40;;;;;;5076701;28;20056;-83
2022/09/23 13:21:43;;;;;;;4.80;4.20;;;17.40;61.40;;;;;;5076674;28;20039;-82
2022/09/23 13:24:12;;;;;;;4.40;4.00;;;17.40;61.40;;;;;;5076845;28;20024;-78
2022/09/23 13:26:53;;;;;;;5.18;4.38;;;17.40;61.30;;;;;;5076297;28;20269;-83